sensor_id;sensor_type;location;lat;lon;timestamp;P1;durP1;ratioP1;P2;durP2;ratioP2
48805;SDS011;34625;47.176;27.548;2023-03-12T00:00:34;3.67;;;0.88;;
48805;SDS011;34625;47.176;27.548;2023-03-12T00:03:00;0.80;;;0.60;;
48805;SDS011;34625;47.176;27.548;2023-03-12T00:05:26;3.15;;;0.70;;
48805;SDS011;34625;47.176;27.548;2023-03-12T00:07:52;1.10;;;1.00;;
48805;SDS011;34625;47.176;27.548;2023-03-12T00:10:19;1.38;;;1.00;;
48805;SDS011;34625;47.176;27.548;2023-03-12T00:12:45;2.63;;;1.45;;
48805;SDS011;34625;47.176;27.548;2023-03-12T00:15:11;0.60;;;0.60;;
48805;SDS011;34625;47.176;27.548;2023-03-12T00:17:37;3.50;;;1.13;;
48805;SDS011;34625;47.176;27.548;2023-03-12T00:20:03;1.30;;;1.20;;
48805;SDS011;34625;47.176;27.548;2023-03-12T00:22:31;1.35;;;1.25;;
48805;SDS011;34625;47.176;27.548;2023-03-12T00:24:58;1.42;;;1.15;;
48805;SDS011;34625;47.176;27.548;2023-03-12T00:27:24;1.85;;;1.48;;
48805;SDS011;34625;47.176;27.548;2023-03-12T00:29:50;1.70;;;1.55;;
48805;SDS011;34625;47.176;27.548;2023-03-12T00:32:17;1.55;;;1.20;;
48805;SDS011;34625;47.176;27.548;2023-03-12T00:34:43;2.78;;;1.70;;
48805;SDS011;34625;47.176;27.548;2023-03-12T00:37:14;0.85;;;0.75;;
48805;SDS011;34625;47.176;27.548;2023-03-12T00:39:40;1.45;;;1.33;;
48805;SDS011;34625;47.176;27.548;2023-03-12T00:42:06;4.38;;;1.52;;
48805;SDS011;34625;47.176;27.548;2023-03-12T00:44:32;1.48;;;0.98;;
48805;SDS011;34625;47.176;27.548;2023-03-12T00:46:58;1.17;;;1.00;;
48805;SDS011;34625;47.176;27.548;2023-03-12T00:49:24;1.80;;;1.25;;
48805;SDS011;34625;47.176;27.548;2023-03-12T00:51:50;2.63;;;1.60;;
48805;SDS011;34625;47.176;27.548;2023-03-12T00:54:17;1.35;;;1.23;;
48805;SDS011;34625;47.176;27.548;2023-03-12T00:56:43;2.45;;;1.63;;
48805;SDS011;34625;47.176;27.548;2023-03-12T00:59:11;6.72;;;1.50;;
48805;SDS011;34625;47.176;27.548;2023-03-12T01:01:38;1.33;;;1.08;;
48805;SDS011;34625;47.176;27.548;2023-03-12T01:04:04;1.20;;;1.05;;
48805;SDS011;34625;47.176;27.548;2023-03-12T01:06:30;1.35;;;1.25;;
48805;SDS011;34625;47.176;27.548;2023-03-12T01:08:57;2.08;;;1.30;;
48805;SDS011;34625;47.176;27.548;2023-03-12T01:11:23;2.95;;;1.58;;
48805;SDS011;34625;47.176;27.548;2023-03-12T01:13:49;2.00;;;1.30;;
48805;SDS011;34625;47.176;27.548;2023-03-12T01:16:15;1.25;;;1.10;;
48805;SDS011;34625;47.176;27.548;2023-03-12T01:18:41;1.60;;;1.10;;
48805;SDS011;34625;47.176;27.548;2023-03-12T01:21:07;1.98;;;1.35;;
48805;SDS011;34625;47.176;27.548;2023-03-12T01:23:33;1.60;;;1.50;;
48805;SDS011;34625;47.176;27.548;2023-03-12T01:25:59;3.13;;;1.75;;
48805;SDS011;34625;47.176;27.548;2023-03-12T01:28:25;1.77;;;1.48;;
48805;SDS011;34625;47.176;27.548;2023-03-12T01:30:52;1.48;;;1.38;;
48805;SDS011;34625;47.176;27.548;2023-03-12T01:33:18;1.20;;;1.10;;
48805;SDS011;34625;47.176;27.548;2023-03-12T01:35:47;2.17;;;1.65;;
48805;SDS011;34625;47.176;27.548;2023-03-12T01:38:14;1.48;;;1.30;;
48805;SDS011;34625;47.176;27.548;2023-03-12T01:40:40;1.15;;;1.00;;
48805;SDS011;34625;47.176;27.548;2023-03-12T01:43:24;1.35;;;1.23;;
48805;SDS011;34625;47.176;27.548;2023-03-12T01:48:35;1.10;;;0.90;;
48805;SDS011;34625;47.176;27.548;2023-03-12T01:51:04;2.88;;;1.50;;
48805;SDS011;34625;47.176;27.548;2023-03-12T01:53:32;1.92;;;1.60;;
48805;SDS011;34625;47.176;27.548;2023-03-12T01:55:59;1.40;;;1.30;;
48805;SDS011;34625;47.176;27.548;2023-03-12T01:58:27;1.90;;;1.30;;
48805;SDS011;34625;47.176;27.548;2023-03-12T02:00:56;1.05;;;0.85;;
48805;SDS011;34625;47.176;27.548;2023-03-12T02:03:22;3.63;;;2.15;;
48805;SDS011;34625;47.176;27.548;2023-03-12T02:06:10;1.50;;;1.40;;
48805;SDS011;34625;47.176;27.548;2023-03-12T02:08:38;1.85;;;1.65;;
48805;SDS011;34625;47.176;27.548;2023-03-12T02:11:09;1.70;;;1.60;;
48805;SDS011;34625;47.176;27.548;2023-03-12T02:13:36;1.50;;;1.40;;
48805;SDS011;34625;47.176;27.548;2023-03-12T02:16:02;2.67;;;2.00;;
48805;SDS011;34625;47.176;27.548;2023-03-12T02:18:28;3.33;;;1.55;;
48805;SDS011;34625;47.176;27.548;2023-03-12T02:20:58;1.63;;;1.52;;
48805;SDS011;34625;47.176;27.548;2023-03-12T02:26:28;1.40;;;1.02;;
48805;SDS011;34625;47.176;27.548;2023-03-12T02:28:57;3.83;;;1.50;;
48805;SDS011;34625;47.176;27.548;2023-03-12T02:31:25;1.42;;;1.20;;
48805;SDS011;34625;47.176;27.548;2023-03-12T02:33:57;2.88;;;1.60;;
48805;SDS011;34625;47.176;27.548;2023-03-12T02:36:25;1.30;;;1.20;;
48805;SDS011;34625;47.176;27.548;2023-03-12T02:38:52;2.58;;;1.50;;
48805;SDS011;34625;47.176;27.548;2023-03-12T02:41:21;2.78;;;1.55;;
48805;SDS011;34625;47.176;27.548;2023-03-12T02:43:54;4.35;;;1.40;;
48805;SDS011;34625;47.176;27.548;2023-03-12T02:46:24;1.23;;;1.08;;
48805;SDS011;34625;47.176;27.548;2023-03-12T02:48:51;4.30;;;1.73;;
48805;SDS011;34625;47.176;27.548;2023-03-12T02:51:17;1.50;;;1.40;;
48805;SDS011;34625;47.176;27.548;2023-03-12T02:53:43;4.20;;;1.17;;
48805;SDS011;34625;47.176;27.548;2023-03-12T02:56:11;2.58;;;1.73;;
48805;SDS011;34625;47.176;27.548;2023-03-12T02:58:37;1.30;;;1.20;;
48805;SDS011;34625;47.176;27.548;2023-03-12T03:01:04;1.65;;;1.25;;
48805;SDS011;34625;47.176;27.548;2023-03-12T03:03:30;1.85;;;1.75;;
48805;SDS011;34625;47.176;27.548;2023-03-12T03:05:56;1.42;;;1.15;;
48805;SDS011;34625;47.176;27.548;2023-03-12T03:08:26;1.60;;;1.30;;
48805;SDS011;34625;47.176;27.548;2023-03-12T03:10:52;1.35;;;1.25;;
48805;SDS011;34625;47.176;27.548;2023-03-12T03:13:18;2.22;;;1.70;;
48805;SDS011;34625;47.176;27.548;2023-03-12T03:15:44;0.60;;;0.60;;
48805;SDS011;34625;47.176;27.548;2023-03-12T03:18:11;1.58;;;1.30;;
48805;SDS011;34625;47.176;27.548;2023-03-12T03:20:37;2.08;;;0.95;;
48805;SDS011;34625;47.176;27.548;2023-03-12T03:23:03;2.78;;;1.77;;
48805;SDS011;34625;47.176;27.548;2023-03-12T03:25:29;1.58;;;1.35;;
48805;SDS011;34625;47.176;27.548;2023-03-12T03:27:55;0.93;;;0.85;;
48805;SDS011;34625;47.176;27.548;2023-03-12T03:30:21;1.65;;;1.55;;
48805;SDS011;34625;47.176;27.548;2023-03-12T03:32:49;1.33;;;1.17;;
48805;SDS011;34625;47.176;27.548;2023-03-12T03:35:16;1.88;;;1.42;;
48805;SDS011;34625;47.176;27.548;2023-03-12T03:37:43;2.22;;;2.03;;
48805;SDS011;34625;47.176;27.548;2023-03-12T03:40:09;1.48;;;1.38;;
48805;SDS011;34625;47.176;27.548;2023-03-12T03:42:37;1.25;;;1.02;;
48805;SDS011;34625;47.176;27.548;2023-03-12T03:45:04;1.58;;;1.45;;
48805;SDS011;34625;47.176;27.548;2023-03-12T03:47:31;1.27;;;1.17;;
48805;SDS011;34625;47.176;27.548;2023-03-12T03:49:58;1.33;;;1.23;;
48805;SDS011;34625;47.176;27.548;2023-03-12T03:52:24;1.85;;;1.55;;
48805;SDS011;34625;47.176;27.548;2023-03-12T03:54:50;6.40;;;1.60;;
48805;SDS011;34625;47.176;27.548;2023-03-12T03:57:17;1.60;;;1.15;;
48805;SDS011;34625;47.176;27.548;2023-03-12T03:59:43;1.77;;;1.48;;
48805;SDS011;34625;47.176;27.548;2023-03-12T04:02:09;1.52;;;1.42;;
48805;SDS011;34625;47.176;27.548;2023-03-12T04:04:37;2.00;;;1.23;;
48805;SDS011;34625;47.176;27.548;2023-03-12T04:07:04;1.98;;;1.58;;
48805;SDS011;34625;47.176;27.548;2023-03-12T04:09:30;2.95;;;1.80;;
48805;SDS011;34625;47.176;27.548;2023-03-12T04:11:56;1.55;;;1.45;;
48805;SDS011;34625;47.176;27.548;2023-03-12T04:14:22;2.13;;;1.77;;
48805;SDS011;34625;47.176;27.548;2023-03-12T04:16:49;2.58;;;1.60;;
48805;SDS011;34625;47.176;27.548;2023-03-12T04:19:15;1.45;;;1.35;;
48805;SDS011;34625;47.176;27.548;2023-03-12T04:21:41;2.40;;;1.67;;
48805;SDS011;34625;47.176;27.548;2023-03-12T04:24:07;2.55;;;1.88;;
48805;SDS011;34625;47.176;27.548;2023-03-12T04:26:39;1.48;;;1.25;;
48805;SDS011;34625;47.176;27.548;2023-03-12T04:29:06;2.08;;;1.58;;
48805;SDS011;34625;47.176;27.548;2023-03-12T04:31:33;1.98;;;1.27;;
48805;SDS011;34625;47.176;27.548;2023-03-12T04:33:59;3.90;;;1.77;;
48805;SDS011;34625;47.176;27.548;2023-03-12T04:36:25;4.78;;;1.92;;
48805;SDS011;34625;47.176;27.548;2023-03-12T04:38:52;2.08;;;1.85;;
48805;SDS011;34625;47.176;27.548;2023-03-12T04:41:24;2.88;;;1.27;;
48805;SDS011;34625;47.176;27.548;2023-03-12T04:43:56;2.08;;;1.77;;
48805;SDS011;34625;47.176;27.548;2023-03-12T04:46:22;2.40;;;1.80;;
48805;SDS011;34625;47.176;27.548;2023-03-12T04:48:48;2.72;;;2.00;;
48805;SDS011;34625;47.176;27.548;2023-03-12T04:51:15;2.13;;;1.48;;
48805;SDS011;34625;47.176;27.548;2023-03-12T04:53:41;2.83;;;1.75;;
48805;SDS011;34625;47.176;27.548;2023-03-12T04:56:09;1.90;;;1.80;;
48805;SDS011;34625;47.176;27.548;2023-03-12T04:58:36;4.82;;;2.10;;
48805;SDS011;34625;47.176;27.548;2023-03-12T05:01:02;0.77;;;0.75;;
48805;SDS011;34625;47.176;27.548;2023-03-12T05:03:30;3.92;;;2.30;;
48805;SDS011;34625;47.176;27.548;2023-03-12T05:05:57;1.45;;;1.08;;
48805;SDS011;34625;47.176;27.548;2023-03-12T05:08:24;2.80;;;1.95;;
48805;SDS011;34625;47.176;27.548;2023-03-12T05:10:50;2.38;;;1.90;;
48805;SDS011;34625;47.176;27.548;2023-03-12T05:13:20;1.65;;;1.55;;
48805;SDS011;34625;47.176;27.548;2023-03-12T05:15:50;2.08;;;1.77;;
48805;SDS011;34625;47.176;27.548;2023-03-12T05:18:17;1.70;;;1.60;;
48805;SDS011;34625;47.176;27.548;2023-03-12T05:20:45;2.65;;;1.70;;
48805;SDS011;34625;47.176;27.548;2023-03-12T05:23:12;4.20;;;2.00;;
48805;SDS011;34625;47.176;27.548;2023-03-12T05:25:39;3.47;;;1.98;;
48805;SDS011;34625;47.176;27.548;2023-03-12T05:28:05;1.63;;;1.25;;
48805;SDS011;34625;47.176;27.548;2023-03-12T05:30:32;0.98;;;0.95;;
48805;SDS011;34625;47.176;27.548;2023-03-12T05:32:58;2.85;;;1.67;;
48805;SDS011;34625;47.176;27.548;2023-03-12T05:35:23;3.30;;;2.20;;
48805;SDS011;34625;47.176;27.548;2023-03-12T05:37:50;2.70;;;1.80;;
48805;SDS011;34625;47.176;27.548;2023-03-12T05:40:16;3.42;;;2.22;;
48805;SDS011;34625;47.176;27.548;2023-03-12T05:42:42;3.03;;;2.00;;
48805;SDS011;34625;47.176;27.548;2023-03-12T05:45:08;2.35;;;1.65;;
48805;SDS011;34625;47.176;27.548;2023-03-12T05:47:38;1.98;;;1.55;;
48805;SDS011;34625;47.176;27.548;2023-03-12T05:50:04;1.88;;;1.58;;
48805;SDS011;34625;47.176;27.548;2023-03-12T05:52:31;3.22;;;2.08;;
48805;SDS011;34625;47.176;27.548;2023-03-12T05:54:57;1.85;;;1.52;;
48805;SDS011;34625;47.176;27.548;2023-03-12T05:57:23;2.15;;;1.27;;
48805;SDS011;34625;47.176;27.548;2023-03-12T05:59:49;1.77;;;1.23;;
48805;SDS011;34625;47.176;27.548;2023-03-12T06:02:15;2.38;;;1.58;;
48805;SDS011;34625;47.176;27.548;2023-03-12T06:04:42;1.67;;;1.30;;
48805;SDS011;34625;47.176;27.548;2023-03-12T06:07:08;1.67;;;1.45;;
48805;SDS011;34625;47.176;27.548;2023-03-12T06:09:35;2.33;;;1.42;;
48805;SDS011;34625;47.176;27.548;2023-03-12T06:12:01;1.05;;;0.95;;
48805;SDS011;34625;47.176;27.548;2023-03-12T06:14:28;2.83;;;1.27;;
48805;SDS011;34625;47.176;27.548;2023-03-12T06:16:55;5.10;;;2.17;;
48805;SDS011;34625;47.176;27.548;2023-03-12T06:19:21;2.63;;;1.75;;
48805;SDS011;34625;47.176;27.548;2023-03-12T06:21:48;2.35;;;1.67;;
48805;SDS011;34625;47.176;27.548;2023-03-12T06:24:14;2.78;;;1.63;;
48805;SDS011;34625;47.176;27.548;2023-03-12T06:26:44;2.88;;;1.80;;
48805;SDS011;34625;47.176;27.548;2023-03-12T06:29:10;3.95;;;3.33;;
48805;SDS011;34625;47.176;27.548;2023-03-12T06:31:36;3.40;;;2.67;;
48805;SDS011;34625;47.176;27.548;2023-03-12T06:34:04;2.22;;;2.05;;
48805;SDS011;34625;47.176;27.548;2023-03-12T06:36:30;1.60;;;1.50;;
48805;SDS011;34625;47.176;27.548;2023-03-12T06:38:56;2.38;;;1.88;;
48805;SDS011;34625;47.176;27.548;2023-03-12T06:41:22;2.10;;;1.35;;
48805;SDS011;34625;47.176;27.548;2023-03-12T06:43:48;1.85;;;1.40;;
48805;SDS011;34625;47.176;27.548;2023-03-12T06:46:15;2.78;;;1.30;;
48805;SDS011;34625;47.176;27.548;2023-03-12T06:48:43;2.20;;;1.10;;
48805;SDS011;34625;47.176;27.548;2023-03-12T06:51:11;3.08;;;1.20;;
48805;SDS011;34625;47.176;27.548;2023-03-12T06:53:38;2.13;;;1.33;;
48805;SDS011;34625;47.176;27.548;2023-03-12T06:56:04;2.63;;;0.90;;
48805;SDS011;34625;47.176;27.548;2023-03-12T06:58:31;0.80;;;0.80;;
48805;SDS011;34625;47.176;27.548;2023-03-12T07:00:57;2.08;;;0.75;;
48805;SDS011;34625;47.176;27.548;2023-03-12T07:03:23;1.60;;;1.30;;
48805;SDS011;34625;47.176;27.548;2023-03-12T07:05:49;2.15;;;1.30;;
48805;SDS011;34625;47.176;27.548;2023-03-12T07:08:16;0.73;;;0.73;;
48805;SDS011;34625;47.176;27.548;2023-03-12T07:10:43;2.63;;;1.25;;
48805;SDS011;34625;47.176;27.548;2023-03-12T07:13:10;2.97;;;1.23;;
48805;SDS011;34625;47.176;27.548;2023-03-12T07:15:36;1.45;;;1.00;;
48805;SDS011;34625;47.176;27.548;2023-03-12T07:18:03;1.48;;;1.25;;
48805;SDS011;34625;47.176;27.548;2023-03-12T07:20:30;3.83;;;1.88;;
48805;SDS011;34625;47.176;27.548;2023-03-12T07:22:57;2.30;;;1.30;;
48805;SDS011;34625;47.176;27.548;2023-03-12T07:25:24;1.75;;;1.05;;
48805;SDS011;34625;47.176;27.548;2023-03-12T07:27:50;1.20;;;1.10;;
48805;SDS011;34625;47.176;27.548;2023-03-12T07:30:16;1.27;;;1.15;;
48805;SDS011;34625;47.176;27.548;2023-03-12T07:32:42;0.98;;;0.98;;
48805;SDS011;34625;47.176;27.548;2023-03-12T07:35:08;1.50;;;0.90;;
48805;SDS011;34625;47.176;27.548;2023-03-12T07:37:35;2.00;;;1.25;;
48805;SDS011;34625;47.176;27.548;2023-03-12T07:40:01;2.20;;;1.02;;
48805;SDS011;34625;47.176;27.548;2023-03-12T07:42:31;2.65;;;1.48;;
48805;SDS011;34625;47.176;27.548;2023-03-12T07:44:58;2.45;;;1.40;;
48805;SDS011;34625;47.176;27.548;2023-03-12T07:47:24;2.28;;;1.00;;
48805;SDS011;34625;47.176;27.548;2023-03-12T07:49:50;1.52;;;1.13;;
48805;SDS011;34625;47.176;27.548;2023-03-12T07:52:18;3.90;;;1.20;;
48805;SDS011;34625;47.176;27.548;2023-03-12T07:54:44;2.50;;;0.85;;
48805;SDS011;34625;47.176;27.548;2023-03-12T07:57:10;3.30;;;1.60;;
48805;SDS011;34625;47.176;27.548;2023-03-12T07:59:37;1.10;;;1.00;;
48805;SDS011;34625;47.176;27.548;2023-03-12T08:02:03;2.47;;;1.00;;
48805;SDS011;34625;47.176;27.548;2023-03-12T08:04:29;2.83;;;1.80;;
48805;SDS011;34625;47.176;27.548;2023-03-12T08:06:55;1.35;;;1.08;;
48805;SDS011;34625;47.176;27.548;2023-03-12T08:09:21;1.15;;;1.13;;
48805;SDS011;34625;47.176;27.548;2023-03-12T08:11:47;1.48;;;1.20;;
48805;SDS011;34625;47.176;27.548;2023-03-12T08:14:13;2.58;;;1.45;;
48805;SDS011;34625;47.176;27.548;2023-03-12T08:16:39;1.35;;;1.23;;
48805;SDS011;34625;47.176;27.548;2023-03-12T08:19:05;2.80;;;1.48;;
48805;SDS011;34625;47.176;27.548;2023-03-12T08:21:31;2.60;;;1.15;;
48805;SDS011;34625;47.176;27.548;2023-03-12T08:23:57;4.80;;;1.83;;
48805;SDS011;34625;47.176;27.548;2023-03-12T08:26:23;1.95;;;1.30;;
48805;SDS011;34625;47.176;27.548;2023-03-12T08:28:49;1.75;;;1.50;;
48805;SDS011;34625;47.176;27.548;2023-03-12T08:31:15;2.13;;;1.42;;
48805;SDS011;34625;47.176;27.548;2023-03-12T08:33:41;1.35;;;1.25;;
48805;SDS011;34625;47.176;27.548;2023-03-12T08:36:08;3.55;;;1.55;;
48805;SDS011;34625;47.176;27.548;2023-03-12T08:38:35;3.88;;;1.70;;
48805;SDS011;34625;47.176;27.548;2023-03-12T08:41:01;3.65;;;1.45;;
48805;SDS011;34625;47.176;27.548;2023-03-12T08:43:27;2.55;;;1.15;;
48805;SDS011;34625;47.176;27.548;2023-03-12T08:45:54;5.13;;;1.42;;
48805;SDS011;34625;47.176;27.548;2023-03-12T08:48:25;0.82;;;0.80;;
48805;SDS011;34625;47.176;27.548;2023-03-12T08:50:53;1.60;;;1.02;;
48805;SDS011;34625;47.176;27.548;2023-03-12T08:53:21;3.30;;;1.60;;
48805;SDS011;34625;47.176;27.548;2023-03-12T08:55:47;1.52;;;1.35;;
48805;SDS011;34625;47.176;27.548;2023-03-12T08:58:13;1.48;;;1.38;;
48805;SDS011;34625;47.176;27.548;2023-03-12T09:00:39;1.48;;;1.38;;
48805;SDS011;34625;47.176;27.548;2023-03-12T09:03:05;2.80;;;1.15;;
48805;SDS011;34625;47.176;27.548;2023-03-12T09:05:31;1.73;;;1.30;;
48805;SDS011;34625;47.176;27.548;2023-03-12T09:07:57;1.40;;;1.17;;
48805;SDS011;34625;47.176;27.548;2023-03-12T09:10:24;5.57;;;1.00;;
48805;SDS011;34625;47.176;27.548;2023-03-12T09:12:51;4.45;;;1.27;;
48805;SDS011;34625;47.176;27.548;2023-03-12T09:15:17;1.00;;;0.80;;
48805;SDS011;34625;47.176;27.548;2023-03-12T09:17:43;2.70;;;0.90;;
48805;SDS011;34625;47.176;27.548;2023-03-12T09:20:09;1.92;;;1.35;;
48805;SDS011;34625;47.176;27.548;2023-03-12T09:22:39;3.75;;;1.33;;
48805;SDS011;34625;47.176;27.548;2023-03-12T09:25:06;3.80;;;1.35;;
48805;SDS011;34625;47.176;27.548;2023-03-12T09:27:37;3.13;;;1.55;;
48805;SDS011;34625;47.176;27.548;2023-03-12T09:30:04;1.52;;;1.27;;
48805;SDS011;34625;47.176;27.548;2023-03-12T09:32:32;4.32;;;1.65;;
48805;SDS011;34625;47.176;27.548;2023-03-12T09:34:58;4.13;;;1.70;;
48805;SDS011;34625;47.176;27.548;2023-03-12T09:37:24;1.27;;;1.17;;
48805;SDS011;34625;47.176;27.548;2023-03-12T09:39:51;4.10;;;1.15;;
48805;SDS011;34625;47.176;27.548;2023-03-12T09:42:24;2.63;;;1.20;;
48805;SDS011;34625;47.176;27.548;2023-03-12T09:45:00;3.20;;;1.40;;
48805;SDS011;34625;47.176;27.548;2023-03-12T09:47:33;2.85;;;1.13;;
48805;SDS011;34625;47.176;27.548;2023-03-12T09:50:05;1.80;;;1.30;;
48805;SDS011;34625;47.176;27.548;2023-03-12T09:55:20;2.42;;;1.15;;
48805;SDS011;34625;47.176;27.548;2023-03-12T09:57:48;2.60;;;1.45;;
48805;SDS011;34625;47.176;27.548;2023-03-12T10:00:17;3.45;;;2.03;;
48805;SDS011;34625;47.176;27.548;2023-03-12T10:13:45;6.55;;;2.53;;
48805;SDS011;34625;47.176;27.548;2023-03-12T10:27:27;2.65;;;1.92;;
48805;SDS011;34625;47.176;27.548;2023-03-12T10:29:54;4.32;;;2.70;;
48805;SDS011;34625;47.176;27.548;2023-03-12T10:34:51;4.97;;;1.92;;
48805;SDS011;34625;47.176;27.548;2023-03-12T10:37:22;4.85;;;1.73;;
48805;SDS011;34625;47.176;27.548;2023-03-12T10:39:53;5.22;;;1.42;;
48805;SDS011;34625;47.176;27.548;2023-03-12T10:42:23;3.08;;;2.17;;
48805;SDS011;34625;47.176;27.548;2023-03-12T10:45:14;2.17;;;1.80;;
48805;SDS011;34625;47.176;27.548;2023-03-12T10:47:47;4.35;;;1.75;;
48805;SDS011;34625;47.176;27.548;2023-03-12T10:50:18;10.10;;;2.13;;
48805;SDS011;34625;47.176;27.548;2023-03-12T10:52:48;2.45;;;1.52;;
48805;SDS011;34625;47.176;27.548;2023-03-12T10:57:47;2.70;;;1.77;;
48805;SDS011;34625;47.176;27.548;2023-03-12T11:00:25;3.03;;;1.40;;
48805;SDS011;34625;47.176;27.548;2023-03-12T11:05:33;2.95;;;1.80;;
48805;SDS011;34625;47.176;27.548;2023-03-12T11:08:00;2.67;;;1.30;;
48805;SDS011;34625;47.176;27.548;2023-03-12T11:10:44;2.33;;;1.45;;
48805;SDS011;34625;47.176;27.548;2023-03-12T11:15:57;1.73;;;1.33;;
48805;SDS011;34625;47.176;27.548;2023-03-12T11:21:24;4.13;;;1.75;;
48805;SDS011;34625;47.176;27.548;2023-03-12T11:24:10;1.50;;;1.40;;
48805;SDS011;34625;47.176;27.548;2023-03-12T11:29:12;2.85;;;1.30;;
48805;SDS011;34625;47.176;27.548;2023-03-12T11:34:36;5.55;;;2.08;;
48805;SDS011;34625;47.176;27.548;2023-03-12T11:37:11;1.38;;;1.27;;
48805;SDS011;34625;47.176;27.548;2023-03-12T11:47:56;1.67;;;1.30;;
48805;SDS011;34625;47.176;27.548;2023-03-12T11:50:41;2.47;;;1.27;;
48805;SDS011;34625;47.176;27.548;2023-03-12T12:04:02;1.95;;;1.45;;
48805;SDS011;34625;47.176;27.548;2023-03-12T12:11:57;1.65;;;1.55;;
48805;SDS011;34625;47.176;27.548;2023-03-12T12:27:12;1.33;;;1.10;;
48805;SDS011;34625;47.176;27.548;2023-03-12T12:32:16;2.10;;;1.25;;
48805;SDS011;34625;47.176;27.548;2023-03-12T12:35:24;0.35;;;0.35;;
48805;SDS011;34625;47.176;27.548;2023-03-12T12:38:08;1.37;;;1.20;;
48805;SDS011;34625;47.176;27.548;2023-03-12T12:40:58;3.75;;;1.55;;
48805;SDS011;34625;47.176;27.548;2023-03-12T12:46:01;1.20;;;1.13;;
48805;SDS011;34625;47.176;27.548;2023-03-12T12:51:38;4.55;;;1.38;;
48805;SDS011;34625;47.176;27.548;2023-03-12T12:56:42;1.25;;;1.00;;
48805;SDS011;34625;47.176;27.548;2023-03-12T13:02:24;2.03;;;1.27;;
48805;SDS011;34625;47.176;27.548;2023-03-12T13:04:56;1.45;;;0.88;;
48805;SDS011;34625;47.176;27.548;2023-03-12T13:09:52;1.02;;;1.00;;
48805;SDS011;34625;47.176;27.548;2023-03-12T13:14:49;2.60;;;1.30;;
48805;SDS011;34625;47.176;27.548;2023-03-12T13:19:53;1.48;;;1.08;;
48805;SDS011;34625;47.176;27.548;2023-03-12T13:27:36;2.25;;;0.90;;
48805;SDS011;34625;47.176;27.548;2023-03-12T13:43:01;2.33;;;1.40;;
48805;SDS011;34625;47.176;27.548;2023-03-12T13:45:30;2.72;;;1.38;;
48805;SDS011;34625;47.176;27.548;2023-03-12T13:47:57;1.45;;;1.08;;
48805;SDS011;34625;47.176;27.548;2023-03-12T13:50:26;3.65;;;1.17;;
48805;SDS011;34625;47.176;27.548;2023-03-12T13:53:03;2.63;;;1.25;;
48805;SDS011;34625;47.176;27.548;2023-03-12T13:55:32;4.75;;;1.75;;
48805;SDS011;34625;47.176;27.548;2023-03-12T14:00:28;1.63;;;1.02;;
48805;SDS011;34625;47.176;27.548;2023-03-12T14:05:25;1.63;;;1.23;;
48805;SDS011;34625;47.176;27.548;2023-03-12T14:11:06;2.90;;;1.25;;
48805;SDS011;34625;47.176;27.548;2023-03-12T14:19:16;1.77;;;1.05;;
48805;SDS011;34625;47.176;27.548;2023-03-12T14:21:47;1.60;;;1.00;;
48805;SDS011;34625;47.176;27.548;2023-03-12T14:24:26;1.35;;;0.90;;
48805;SDS011;34625;47.176;27.548;2023-03-12T14:26:56;2.50;;;1.65;;
48805;SDS011;34625;47.176;27.548;2023-03-12T14:29:27;1.33;;;0.85;;
48805;SDS011;34625;47.176;27.548;2023-03-12T14:32:02;1.20;;;1.02;;
48805;SDS011;34625;47.176;27.548;2023-03-12T14:34:33;1.95;;;1.08;;
48805;SDS011;34625;47.176;27.548;2023-03-12T14:37:16;1.67;;;1.30;;
48805;SDS011;34625;47.176;27.548;2023-03-12T14:39:50;3.13;;;1.15;;
48805;SDS011;34625;47.176;27.548;2023-03-12T14:42:21;1.77;;;1.17;;
48805;SDS011;34625;47.176;27.548;2023-03-12T14:47:38;2.40;;;1.57;;
48805;SDS011;34625;47.176;27.548;2023-03-12T14:50:24;3.90;;;1.38;;
48805;SDS011;34625;47.176;27.548;2023-03-12T14:53:11;2.67;;;1.33;;
48805;SDS011;34625;47.176;27.548;2023-03-12T14:55:38;2.90;;;1.77;;
48805;SDS011;34625;47.176;27.548;2023-03-12T14:58:05;2.33;;;1.30;;
48805;SDS011;34625;47.176;27.548;2023-03-12T15:00:39;1.23;;;1.10;;
48805;SDS011;34625;47.176;27.548;2023-03-12T15:03:11;1.05;;;0.98;;
48805;SDS011;34625;47.176;27.548;2023-03-12T15:05:44;1.05;;;0.98;;
48805;SDS011;34625;47.176;27.548;2023-03-12T15:08:12;1.13;;;0.90;;
48805;SDS011;34625;47.176;27.548;2023-03-12T15:10:40;1.23;;;0.93;;
48805;SDS011;34625;47.176;27.548;2023-03-12T15:13:13;2.03;;;1.10;;
48805;SDS011;34625;47.176;27.548;2023-03-12T15:15:40;1.20;;;1.10;;
48805;SDS011;34625;47.176;27.548;2023-03-12T15:18:16;2.17;;;1.20;;
48805;SDS011;34625;47.176;27.548;2023-03-12T15:20:48;1.30;;;1.20;;
48805;SDS011;34625;47.176;27.548;2023-03-12T15:23:14;1.98;;;1.08;;
48805;SDS011;34625;47.176;27.548;2023-03-12T15:25:43;1.60;;;1.20;;
48805;SDS011;34625;47.176;27.548;2023-03-12T15:30:36;1.73;;;0.98;;
48805;SDS011;34625;47.176;27.548;2023-03-12T15:33:04;1.60;;;1.17;;
48805;SDS011;34625;47.176;27.548;2023-03-12T15:35:33;1.55;;;1.45;;
48805;SDS011;34625;47.176;27.548;2023-03-12T15:38:00;1.45;;;1.23;;
48805;SDS011;34625;47.176;27.548;2023-03-12T15:40:28;2.53;;;1.42;;
48805;SDS011;34625;47.176;27.548;2023-03-12T15:42:55;3.83;;;2.45;;
48805;SDS011;34625;47.176;27.548;2023-03-12T15:45:36;1.67;;;1.25;;
48805;SDS011;34625;47.176;27.548;2023-03-12T15:48:25;1.35;;;1.10;;
48805;SDS011;34625;47.176;27.548;2023-03-12T15:50:52;2.08;;;1.25;;
48805;SDS011;34625;47.176;27.548;2023-03-12T15:56:00;2.55;;;1.60;;
48805;SDS011;34625;47.176;27.548;2023-03-12T15:58:31;4.53;;;1.38;;
48805;SDS011;34625;47.176;27.548;2023-03-12T16:01:06;3.58;;;1.30;;
48805;SDS011;34625;47.176;27.548;2023-03-12T16:03:40;0.20;;;0.20;;
48805;SDS011;34625;47.176;27.548;2023-03-12T16:06:17;2.38;;;1.00;;
48805;SDS011;34625;47.176;27.548;2023-03-12T16:11:16;2.53;;;1.48;;
48805;SDS011;34625;47.176;27.548;2023-03-12T16:13:45;1.88;;;1.05;;
48805;SDS011;34625;47.176;27.548;2023-03-12T16:16:13;2.33;;;1.63;;
48805;SDS011;34625;47.176;27.548;2023-03-12T16:18:40;2.30;;;1.20;;
48805;SDS011;34625;47.176;27.548;2023-03-12T16:21:07;2.13;;;1.60;;
48805;SDS011;34625;47.176;27.548;2023-03-12T16:23:33;1.50;;;1.40;;
48805;SDS011;34625;47.176;27.548;2023-03-12T16:25:59;5.43;;;1.27;;
48805;SDS011;34625;47.176;27.548;2023-03-12T16:28:26;4.15;;;1.60;;
48805;SDS011;34625;47.176;27.548;2023-03-12T16:30:52;4.45;;;1.30;;
48805;SDS011;34625;47.176;27.548;2023-03-12T16:33:19;0.95;;;0.85;;
48805;SDS011;34625;47.176;27.548;2023-03-12T16:35:47;2.00;;;1.00;;
48805;SDS011;34625;47.176;27.548;2023-03-12T16:38:13;1.70;;;1.40;;
48805;SDS011;34625;47.176;27.548;2023-03-12T16:40:43;2.75;;;1.58;;
48805;SDS011;34625;47.176;27.548;2023-03-12T16:45:49;6.05;;;2.35;;
48805;SDS011;34625;47.176;27.548;2023-03-12T16:48:17;3.90;;;2.08;;
48805;SDS011;34625;47.176;27.548;2023-03-12T16:50:46;9.77;;;2.70;;
48805;SDS011;34625;47.176;27.548;2023-03-12T16:53:14;4.45;;;2.55;;
48805;SDS011;34625;47.176;27.548;2023-03-12T16:55:51;5.95;;;3.60;;
48805;SDS011;34625;47.176;27.548;2023-03-12T16:58:20;5.82;;;3.95;;
48805;SDS011;34625;47.176;27.548;2023-03-12T17:00:48;6.55;;;3.85;;
48805;SDS011;34625;47.176;27.548;2023-03-12T17:03:20;7.03;;;4.10;;
48805;SDS011;34625;47.176;27.548;2023-03-12T17:05:55;12.40;;;6.63;;
48805;SDS011;34625;47.176;27.548;2023-03-12T17:08:21;24.52;;;13.10;;
48805;SDS011;34625;47.176;27.548;2023-03-12T17:10:48;19.00;;;11.48;;
48805;SDS011;34625;47.176;27.548;2023-03-12T17:13:17;13.95;;;8.73;;